Time;durP1;ratioP1;P1;durP2;ratioP2;P2;SDS_P1;SDS_P2;PMS_P1;PMS_P2;Temp;Humidity;BMP_temperature;BMP_pressure;BME280_temperature;BME280_humidity;BME280_pressure;Samples;Min_cycle;Max_cycle;Signal;HPM_P1;HPM_P2
2021/09/23 00:00:04;;;;;;;23.23;13.02;;;13.90;99.90;;;;;;4872048;29;20059;-74
2021/09/23 00:05:16;;;;;;;29.58;13.10;;;13.90;99.90;;;;;;4871958;29;20041;-73
2021/09/23 00:07:42;;;;;;;28.73;12.70;;;13.80;99.90;;;;;;4871840;29;20030;-73
2021/09/23 00:10:10;;;;;;;20.05;11.57;;;13.80;99.90;;;;;;4871969;29;20030;-73
2021/09/23 00:12:36;;;;;;;29.77;13.43;;;13.80;99.90;;;;;;4871735;29;20054;-73
2021/09/23 00:15:05;;;;;;;24.33;12.05;;;13.70;99.90;;;;;;4871850;29;20029;-74
2021/09/23 00:17:31;;;;;;;31.52;13.82;;;13.70;99.90;;;;;;4870777;29;20074;-73
2021/09/23 00:19:57;;;;;;;33.45;14.25;;;13.60;99.90;;;;;;4871658;29;20519;-73
2021/09/23 00:22:23;;;;;;;30.08;13.15;;;13.60;99.90;;;;;;4870749;29;20034;-73
2021/09/23 00:24:49;;;;;;;25.30;12.43;;;13.50;99.90;;;;;;4871397;29;20048;-73
2021/09/23 00:27:15;;;;;;;29.10;12.75;;;13.60;99.90;;;;;;4871071;29;20038;-73
2021/09/23 00:29:40;;;;;;;33.78;12.65;;;13.60;99.90;;;;;;4871734;29;20085;-73
2021/09/23 00:32:07;;;;;;;25.95;12.23;;;13.50;99.90;;;;;;4886763;29;20057;-74
2021/09/23 00:34:32;;;;;;;31.23;13.82;;;13.50;99.90;;;;;;4889806;29;20040;-73
2021/09/23 00:36:59;;;;;;;29.60;13.00;;;13.40;99.90;;;;;;4890494;29;20029;-74
2021/09/23 00:39:25;;;;;;;24.52;13.05;;;13.40;99.90;;;;;;4890313;29;20040;-73
2021/09/23 00:41:51;;;;;;;37.83;15.40;;;13.30;99.90;;;;;;4889937;29;20021;-73
2021/09/23 00:44:22;;;;;;;28.95;13.85;;;13.40;99.90;;;;;;4890309;29;20037;-73
2021/09/23 00:46:50;;;;;;;30.13;13.07;;;13.30;99.90;;;;;;4890086;29;20025;-73
2021/09/23 00:49:16;;;;;;;26.73;12.57;;;13.30;99.90;;;;;;4890081;29;20021;-72
2021/09/23 00:51:45;;;;;;;25.83;12.40;;;13.30;99.90;;;;;;4890267;29;20032;-73
2021/09/23 00:54:11;;;;;;;32.83;13.52;;;13.30;99.90;;;;;;4889767;29;20029;-72
2021/09/23 00:56:37;;;;;;;38.28;13.45;;;13.20;99.90;;;;;;4889945;29;20025;-73
2021/09/23 00:59:04;;;;;;;29.90;14.10;;;13.20;99.90;;;;;;4873392;29;20033;-73
2021/09/23 01:01:30;;;;;;;36.90;14.38;;;13.20;99.90;;;;;;4872563;29;20104;-73
2021/09/23 01:03:56;;;;;;;30.17;13.48;;;13.20;99.90;;;;;;4893793;29;20120;-72
2021/09/23 01:06:22;;;;;;;29.98;13.27;;;13.20;99.90;;;;;;4877033;29;20071;-71
2021/09/23 01:08:55;;;;;;;31.45;14.52;;;13.10;99.90;;;;;;4893375;29;20047;-72
2021/09/23 01:11:23;;;;;;;28.75;13.10;;;13.10;99.90;;;;;;4893662;29;20562;-72
2021/09/23 01:13:48;;;;;;;28.90;12.93;;;13.10;99.90;;;;;;4894504;29;20025;-74
2021/09/23 01:16:14;;;;;;;33.45;13.45;;;13.10;99.90;;;;;;4893785;29;20029;-73
2021/09/23 01:18:40;;;;;;;34.15;13.93;;;13.00;99.90;;;;;;4893560;29;20033;-72
2021/09/23 01:21:07;;;;;;;30.63;14.13;;;13.00;99.90;;;;;;4893517;29;20033;-72
2021/09/23 01:23:44;;;;;;;25.92;14.02;;;13.00;99.90;;;;;;4893094;29;20044;-72
2021/09/23 01:26:16;;;;;;;28.45;13.50;;;12.90;99.90;;;;;;4893645;29;20041;-72
2021/09/23 01:28:42;;;;;;;27.17;12.85;;;13.00;99.90;;;;;;4893165;29;20105;-72
2021/09/23 01:31:09;;;;;;;33.30;13.55;;;12.90;99.90;;;;;;4892405;29;20053;-72
2021/09/23 01:33:37;;;;;;;34.80;12.20;;;12.90;99.90;;;;;;4893631;29;20029;-73
2021/09/23 01:36:03;;;;;;;34.55;14.55;;;12.90;99.90;;;;;;4892959;29;20115;-72
2021/09/23 01:38:30;;;;;;;33.15;14.73;;;12.90;99.90;;;;;;4893323;29;20049;-73
2021/09/23 01:40:56;;;;;;;35.97;13.65;;;12.90;99.90;;;;;;4876630;29;20037;-72
2021/09/23 01:43:24;;;;;;;31.45;12.25;;;12.80;99.90;;;;;;4892496;29;20065;-72
2021/09/23 01:45:50;;;;;;;32.13;12.55;;;12.80;99.90;;;;;;4892766;29;20025;-73
2021/09/23 01:48:16;;;;;;;30.00;13.85;;;12.80;99.90;;;;;;4893120;29;20089;-71
2021/09/23 01:50:42;;;;;;;27.10;13.57;;;12.80;99.90;;;;;;4892669;29;20025;-72
2021/09/23 01:53:08;;;;;;;30.92;14.13;;;12.80;99.90;;;;;;4892851;29;20033;-73
2021/09/23 01:55:33;;;;;;;27.20;13.10;;;12.80;99.90;;;;;;4893011;29;20160;-73
2021/09/23 01:58:00;;;;;;;31.40;13.65;;;12.80;99.90;;;;;;4892802;29;20099;-73
2021/09/23 02:00:26;;;;;;;37.20;15.68;;;12.80;99.90;;;;;;4893072;29;20044;-72
2021/09/23 02:02:54;;;;;;;35.65;15.20;;;12.70;99.90;;;;;;4892669;29;20045;-72
2021/09/23 02:05:20;;;;;;;30.65;13.80;;;12.70;99.90;;;;;;4892541;29;20024;-73
2021/09/23 02:07:46;;;;;;;27.95;13.88;;;12.70;99.90;;;;;;4892617;29;20029;-72
2021/09/23 02:10:12;;;;;;;37.80;14.13;;;12.60;99.90;;;;;;4875944;29;20116;-72
2021/09/23 02:12:37;;;;;;;28.65;12.85;;;12.60;99.90;;;;;;4891990;29;20040;-73
2021/09/23 02:15:04;;;;;;;30.38;13.13;;;12.60;99.90;;;;;;4892640;29;20029;-72
2021/09/23 02:17:30;;;;;;;31.70;14.52;;;12.60;99.90;;;;;;4892227;29;20504;-72
2021/09/23 02:19:56;;;;;;;34.53;13.35;;;12.60;99.90;;;;;;4891944;29;20039;-72
2021/09/23 02:22:22;;;;;;;30.92;14.05;;;12.60;99.90;;;;;;4875628;29;20025;-72
2021/09/23 02:24:48;;;;;;;35.15;14.60;;;12.50;99.90;;;;;;4891904;29;20873;-72
2021/09/23 02:27:14;;;;;;;30.83;12.90;;;12.50;99.90;;;;;;4891872;29;20033;-73
2021/09/23 02:29:40;;;;;;;43.47;16.08;;;12.50;99.90;;;;;;4892419;29;20037;-74
2021/09/23 02:32:07;;;;;;;38.15;15.20;;;12.50;99.90;;;;;;4892018;29;20057;-73
2021/09/23 02:34:32;;;;;;;33.17;14.07;;;12.50;99.90;;;;;;4891934;29;20053;-74
2021/09/23 02:36:58;;;;;;;29.05;13.65;;;12.50;99.90;;;;;;4892432;29;20092;-72
2021/09/23 02:39:24;;;;;;;35.65;14.35;;;12.40;99.90;;;;;;4891868;29;20084;-72
2021/09/23 02:41:50;;;;;;;40.70;15.68;;;12.40;99.90;;;;;;4892127;29;20392;-71
2021/09/23 02:44:15;;;;;;;33.20;14.73;;;12.40;99.90;;;;;;4892069;29;20141;-72
2021/09/23 02:46:41;;;;;;;34.92;14.75;;;12.40;99.90;;;;;;4891808;29;20029;-72
2021/09/23 02:49:07;;;;;;;35.08;15.25;;;12.40;99.90;;;;;;4892068;29;20040;-72
2021/09/23 02:51:32;;;;;;;39.63;15.70;;;12.40;99.90;;;;;;4892220;29;20036;-72
2021/09/23 02:53:58;;;;;;;31.42;12.55;;;12.40;99.90;;;;;;4891686;29;20044;-73
2021/09/23 02:56:24;;;;;;;38.08;16.67;;;12.40;99.90;;;;;;4891697;29;20716;-72
2021/09/23 02:58:50;;;;;;;33.92;14.05;;;12.30;99.90;;;;;;4874930;29;20033;-72
2021/09/23 03:01:17;;;;;;;36.97;14.60;;;12.30;99.90;;;;;;4891369;29;20025;-72
2021/09/23 03:03:46;;;;;;;36.20;15.43;;;12.30;99.90;;;;;;4891503;29;20037;-73
2021/09/23 03:06:12;;;;;;;37.50;15.48;;;12.30;99.90;;;;;;4891539;29;20035;-72
2021/09/23 03:08:38;;;;;;;37.13;15.85;;;12.30;99.90;;;;;;4891112;29;20447;-71
2021/09/23 03:11:04;;;;;;;36.92;13.70;;;12.30;99.90;;;;;;4891661;29;20037;-72
2021/09/23 03:13:30;;;;;;;32.88;15.85;;;12.30;99.90;;;;;;4891912;29;20083;-76
2021/09/23 03:15:56;;;;;;;36.50;16.08;;;12.40;99.90;;;;;;4891119;29;20060;-72
2021/09/23 03:18:22;;;;;;;32.92;14.73;;;12.30;99.90;;;;;;4891511;29;20037;-73
2021/09/23 03:20:48;;;;;;;35.45;15.48;;;12.20;99.90;;;;;;4891474;29;20045;-72
2021/09/23 03:23:14;;;;;;;32.33;13.75;;;12.20;99.90;;;;;;4891832;29;20506;-72
2021/09/23 03:25:41;;;;;;;37.88;15.77;;;12.20;99.90;;;;;;4890285;29;20033;-72
2021/09/23 03:28:07;;;;;;;37.53;15.13;;;12.20;99.90;;;;;;4891431;29;20029;-73
2021/09/23 03:30:35;;;;;;;39.50;14.10;;;12.20;99.90;;;;;;4890767;29;20053;-72
2021/09/23 03:33:08;;;;;;;41.80;15.25;;;12.20;99.90;;;;;;4891419;29;20047;-73
2021/09/23 03:35:35;;;;;;;30.37;13.53;;;12.20;99.90;;;;;;4891486;29;20184;-73
2021/09/23 03:38:02;;;;;;;33.85;13.50;;;12.20;99.90;;;;;;4891023;29;20257;-74
2021/09/23 03:40:28;;;;;;;29.25;14.43;;;12.20;99.90;;;;;;4891316;29;20033;-72
2021/09/23 03:42:54;;;;;;;28.08;13.90;;;12.20;99.90;;;;;;4890792;29;20075;-72
2021/09/23 03:45:19;;;;;;;33.85;13.65;;;12.30;99.90;;;;;;4874095;29;20071;-73
2021/09/23 03:47:45;;;;;;;39.08;14.73;;;12.30;99.90;;;;;;4890812;29;20021;-73
2021/09/23 03:50:12;;;;;;;35.38;13.38;;;12.30;99.90;;;;;;4890808;29;20482;-72
2021/09/23 03:52:41;;;;;;;32.03;13.45;;;12.30;99.90;;;;;;4890769;29;20029;-73
2021/09/23 03:55:08;;;;;;;34.47;13.60;;;12.30;99.90;;;;;;4890781;29;20033;-72
2021/09/23 03:57:34;;;;;;;32.03;13.50;;;12.40;99.90;;;;;;4890614;29;20033;-73
2021/09/23 03:59:59;;;;;;;39.72;15.75;;;12.40;99.90;;;;;;4890992;29;20082;-74
2021/09/23 04:02:25;;;;;;;32.13;12.45;;;12.40;99.90;;;;;;4890864;29;20036;-72
2021/09/23 04:04:50;;;;;;;31.88;13.73;;;12.40;99.90;;;;;;4890233;29;20362;-74
2021/09/23 04:07:17;;;;;;;32.78;12.50;;;12.50;99.90;;;;;;4890478;29;20032;-74
2021/09/23 04:09:42;;;;;;;26.98;12.38;;;12.50;99.90;;;;;;4890614;29;20063;-73
2021/09/23 04:12:09;;;;;;;23.60;11.88;;;12.60;99.90;;;;;;4890230;29;20025;-73
2021/09/23 04:14:35;;;;;;;29.50;12.82;;;12.60;99.90;;;;;;4890695;29;20101;-72
2021/09/23 04:17:01;;;;;;;28.85;11.55;;;12.60;99.90;;;;;;4890062;29;20068;-73
2021/09/23 04:19:27;;;;;;;27.95;12.18;;;12.70;99.90;;;;;;4873444;29;20045;-73
2021/09/23 04:21:53;;;;;;;28.70;12.23;;;12.70;99.90;;;;;;4890476;29;20049;-74
2021/09/23 04:24:19;;;;;;;25.00;10.57;;;12.70;99.90;;;;;;4889786;29;21374;-72
2021/09/23 04:26:45;;;;;;;30.67;11.63;;;12.80;99.90;;;;;;4890218;29;20041;-71
2021/09/23 04:29:16;;;;;;;35.42;12.55;;;12.90;99.90;;;;;;4890434;29;20737;-73
2021/09/23 04:31:41;;;;;;;30.58;11.75;;;12.90;99.90;;;;;;4889793;29;20562;-75
2021/09/23 04:34:07;;;;;;;32.95;12.18;;;13.00;99.90;;;;;;4873668;29;20029;-72
2021/09/23 04:36:33;;;;;;;29.88;11.88;;;13.10;99.90;;;;;;4890169;29;20036;-72
2021/09/23 04:38:59;;;;;;;28.90;11.93;;;13.10;99.90;;;;;;4890258;29;20044;-72
2021/09/23 04:41:24;;;;;;;37.50;12.63;;;13.10;99.90;;;;;;4890266;29;20029;-73
2021/09/23 04:43:50;;;;;;;30.25;11.82;;;13.20;99.90;;;;;;4890193;29;20041;-74
2021/09/23 04:46:21;;;;;;;32.17;12.75;;;13.20;99.90;;;;;;4889864;29;20029;-72
2021/09/23 04:48:49;;;;;;;36.72;11.52;;;13.20;99.90;;;;;;4890589;29;20021;-74
2021/09/23 04:51:15;;;;;;;29.10;11.27;;;13.20;99.90;;;;;;4890271;29;20056;-72
2021/09/23 04:53:40;;;;;;;24.70;11.07;;;13.20;99.90;;;;;;4889561;29;20030;-73
2021/09/23 04:56:06;;;;;;;34.25;12.02;;;13.20;99.90;;;;;;4890567;29;20107;-73
2021/09/23 04:58:32;;;;;;;22.90;10.63;;;13.20;99.90;;;;;;4890055;29;20025;-74
2021/09/23 05:00:58;;;;;;;26.25;11.07;;;13.20;99.90;;;;;;4890098;29;20039;-74
2021/09/23 05:03:23;;;;;;;23.83;11.43;;;13.30;99.90;;;;;;4890263;29;20068;-74
2021/09/23 05:05:49;;;;;;;24.83;11.88;;;13.30;99.90;;;;;;4889797;29;20032;-72
2021/09/23 05:08:14;;;;;;;22.77;11.15;;;13.20;99.90;;;;;;4889697;29;20029;-71
2021/09/23 05:10:40;;;;;;;20.77;10.02;;;13.30;99.90;;;;;;4889967;29;20025;-73
2021/09/23 05:13:05;;;;;;;31.13;11.23;;;13.20;99.90;;;;;;4889695;29;20025;-74
2021/09/23 05:15:31;;;;;;;18.90;9.77;;;13.20;99.90;;;;;;4889599;29;20060;-73
2021/09/23 05:17:57;;;;;;;25.95;12.75;;;13.20;99.90;;;;;;4870254;29;20025;-71
2021/09/23 05:20:22;;;;;;;21.23;11.52;;;13.20;99.90;;;;;;4877147;29;20085;-73
2021/09/23 05:22:48;;;;;;;30.75;11.95;;;13.20;99.90;;;;;;4887097;29;20036;-72
2021/09/23 05:25:14;;;;;;;29.42;12.45;;;13.20;99.90;;;;;;4871079;29;20048;-74
2021/09/23 05:27:39;;;;;;;25.33;10.38;;;13.20;99.90;;;;;;4871018;29;20037;-71
2021/09/23 05:30:07;;;;;;;25.83;11.35;;;13.20;99.90;;;;;;4871928;29;20085;-70
2021/09/23 05:32:33;;;;;;;23.05;10.52;;;13.20;99.90;;;;;;4871633;29;20078;-72
2021/09/23 05:35:00;;;;;;;40.25;13.27;;;13.20;99.90;;;;;;4871113;29;20037;-73
2021/09/23 05:37:25;;;;;;;31.40;13.20;;;13.30;99.90;;;;;;4871344;29;20081;-72
2021/09/23 05:39:51;;;;;;;31.63;12.00;;;13.30;99.90;;;;;;4871279;29;20093;-71
2021/09/23 05:42:16;;;;;;;24.25;11.57;;;13.30;99.90;;;;;;4870892;29;20037;-71
2021/09/23 05:44:42;;;;;;;24.48;12.57;;;13.40;99.90;;;;;;4873456;29;20049;-72
2021/09/23 05:47:08;;;;;;;29.95;12.43;;;13.40;99.90;;;;;;4878757;29;20044;-72
2021/09/23 05:49:33;;;;;;;28.65;13.05;;;13.40;99.90;;;;;;4873497;29;20129;-71
2021/09/23 05:51:59;;;;;;;30.00;12.32;;;13.40;99.90;;;;;;4874888;29;20110;-72
2021/09/23 05:54:25;;;;;;;21.42;12.15;;;13.40;99.90;;;;;;4874510;29;20029;-71
2021/09/23 05:56:51;;;;;;;26.70;11.35;;;13.50;99.90;;;;;;4873816;29;20030;-72
2021/09/23 05:59:18;;;;;;;30.35;11.98;;;13.50;99.90;;;;;;4874463;29;20030;-71
2021/09/23 06:01:44;;;;;;;29.85;12.77;;;13.50;99.90;;;;;;4874214;29;20025;-71
2021/09/23 06:04:10;;;;;;;30.40;12.68;;;13.60;99.90;;;;;;4873772;29;20056;-72
2021/09/23 06:06:36;;;;;;;27.52;11.82;;;13.60;99.90;;;;;;4874326;29;20030;-72
2021/09/23 06:09:03;;;;;;;26.02;12.70;;;13.70;99.90;;;;;;4874217;29;20025;-71
2021/09/23 06:11:29;;;;;;;24.50;10.98;;;13.70;99.90;;;;;;4884072;29;20037;-73
2021/09/23 06:13:55;;;;;;;29.15;11.48;;;13.70;99.90;;;;;;4874024;29;20472;-71
2021/09/23 06:16:21;;;;;;;24.90;12.00;;;13.70;99.90;;;;;;4873378;29;20025;-71
2021/09/23 06:18:48;;;;;;;30.63;12.25;;;13.70;99.90;;;;;;4880359;29;20112;-72
2021/09/23 06:21:14;;;;;;;23.13;12.27;;;13.80;99.90;;;;;;4884434;29;20037;-71
2021/09/23 06:23:39;;;;;;;25.70;12.55;;;13.80;99.90;;;;;;4881946;29;20060;-72
2021/09/23 06:26:05;;;;;;;29.10;13.50;;;13.80;99.90;;;;;;4874470;29;20081;-71
2021/09/23 06:28:32;;;;;;;29.52;12.20;;;13.80;99.90;;;;;;4869453;29;20041;-72
2021/09/23 06:31:01;;;;;;;35.88;12.48;;;13.90;99.90;;;;;;4886377;29;20423;-71
2021/09/23 06:33:27;;;;;;;28.52;13.48;;;13.90;99.90;;;;;;4881103;29;20056;-73
2021/09/23 06:35:53;;;;;;;26.48;12.25;;;13.90;99.90;;;;;;4875352;29;20092;-71
2021/09/23 06:38:18;;;;;;;26.40;11.65;;;13.90;99.90;;;;;;4875249;29;20045;-72
2021/09/23 06:40:44;;;;;;;37.40;12.55;;;13.90;99.90;;;;;;4873442;29;20076;-72
2021/09/23 06:43:09;;;;;;;24.35;11.40;;;13.90;99.90;;;;;;4875995;29;20405;-73
2021/09/23 06:45:35;;;;;;;27.20;12.43;;;13.90;99.90;;;;;;4891662;29;20057;-74
2021/09/23 06:48:01;;;;;;;26.17;11.73;;;14.00;99.90;;;;;;4892174;29;20028;-74
2021/09/23 06:50:27;;;;;;;41.03;12.60;;;14.00;99.90;;;;;;4891380;29;20036;-71
2021/09/23 06:52:59;;;;;;;37.97;14.02;;;14.00;99.90;;;;;;4873349;29;20030;-72
2021/09/23 06:55:24;;;;;;;36.70;13.02;;;14.00;99.90;;;;;;4873397;29;20038;-72
2021/09/23 06:57:50;;;;;;;29.90;12.32;;;14.00;99.90;;;;;;4873930;29;20539;-73
2021/09/23 07:00:16;;;;;;;37.80;13.30;;;14.10;99.90;;;;;;4883051;29;20039;-73
2021/09/23 07:02:41;;;;;;;26.58;11.80;;;14.10;99.90;;;;;;4871634;29;20041;-71
2021/09/23 07:05:08;;;;;;;28.20;11.45;;;14.10;99.90;;;;;;4873190;29;20042;-71
2021/09/23 07:07:33;;;;;;;35.15;11.85;;;14.20;99.90;;;;;;4873117;29;20388;-74
2021/09/23 07:10:00;;;;;;;27.88;12.02;;;14.20;99.90;;;;;;4875877;29;20092;-72
2021/09/23 07:12:26;;;;;;;28.80;12.45;;;14.30;99.90;;;;;;4879990;29;20030;-71
2021/09/23 07:14:52;;;;;;;30.35;12.82;;;14.30;99.90;;;;;;4891067;29;20577;-72
2021/09/23 07:17:17;;;;;;;27.08;11.35;;;14.30;99.90;;;;;;4891612;29;20033;-71
2021/09/23 07:19:43;;;;;;;34.22;12.52;;;14.30;99.90;;;;;;4886449;29;20037;-72
2021/09/23 07:22:09;;;;;;;24.50;11.63;;;14.30;99.90;;;;;;4885857;29;20025;-72
2021/09/23 07:24:35;;;;;;;30.60;13.88;;;14.30;99.90;;;;;;4889991;29;20069;-73
2021/09/23 07:27:01;;;;;;;28.67;13.32;;;14.30;99.90;;;;;;4891696;29;20025;-73
2021/09/23 07:29:27;;;;;;;27.48;13.05;;;14.30;99.90;;;;;;4885118;29;20124;-72
2021/09/23 07:31:53;;;;;;;41.53;13.63;;;14.30;99.90;;;;;;4872617;29;20086;-72
2021/09/23 07:34:19;;;;;;;34.78;12.90;;;14.30;99.90;;;;;;4873186;29;20081;-72
2021/09/23 07:36:45;;;;;;;28.42;12.70;;;14.40;99.90;;;;;;4872721;29;20036;-71
2021/09/23 07:39:11;;;;;;;28.25;12.52;;;14.40;99.90;;;;;;4872838;29;20025;-72
2021/09/23 07:41:38;;;;;;;32.63;12.77;;;14.50;99.90;;;;;;4872522;29;20041;-71
2021/09/23 07:44:05;;;;;;;31.88;12.70;;;14.50;99.90;;;;;;4885637;29;20033;-71
2021/09/23 07:46:31;;;;;;;28.50;11.00;;;14.60;99.90;;;;;;4891121;29;20054;-73
2021/09/23 07:48:56;;;;;;;28.83;12.02;;;14.70;99.90;;;;;;4878272;29;20041;-71
2021/09/23 07:51:22;;;;;;;24.50;12.23;;;14.70;99.90;;;;;;4872004;29;20033;-71
2021/09/23 07:53:48;;;;;;;37.50;13.73;;;14.80;99.90;;;;;;4872474;29;20034;-71
2021/09/23 07:56:14;;;;;;;25.75;11.32;;;14.90;99.90;;;;;;4887809;29;20585;-72
2021/09/23 07:58:40;;;;;;;26.80;11.57;;;14.90;99.90;;;;;;4890154;29;20065;-71
2021/09/23 08:01:05;;;;;;;26.27;12.15;;;15.00;99.90;;;;;;4872205;29;20070;-70
2021/09/23 08:03:31;;;;;;;23.02;11.57;;;15.00;99.90;;;;;;4884916;29;20033;-71
2021/09/23 08:05:57;;;;;;;34.42;12.00;;;15.10;99.90;;;;;;4890844;29;20596;-71
2021/09/23 08:08:22;;;;;;;27.48;11.85;;;15.20;99.90;;;;;;4889591;29;20037;-70
2021/09/23 08:10:48;;;;;;;21.17;10.98;;;15.30;99.90;;;;;;4889664;29;20026;-73
2021/09/23 08:13:17;;;;;;;25.55;11.82;;;15.40;99.90;;;;;;4889499;29;20253;-75
2021/09/23 08:15:47;;;;;;;24.98;11.25;;;15.40;99.90;;;;;;4890301;29;20037;-74
2021/09/23 08:18:15;;;;;;;25.45;11.50;;;15.50;99.90;;;;;;4881975;29;20029;-71
2021/09/23 08:20:41;;;;;;;22.00;10.75;;;15.40;99.90;;;;;;4878922;29;20157;-73
2021/09/23 08:23:06;;;;;;;24.55;11.05;;;15.60;99.90;;;;;;4884213;29;20041;-75
2021/09/23 08:25:33;;;;;;;27.08;11.07;;;15.70;99.90;;;;;;4889276;29;20040;-71
2021/09/23 08:27:59;;;;;;;23.45;10.40;;;15.80;99.90;;;;;;4887007;29;20474;-72
2021/09/23 08:30:25;;;;;;;23.35;10.77;;;15.70;99.90;;;;;;4877742;29;20037;-72
2021/09/23 08:32:51;;;;;;;28.27;10.55;;;15.80;99.90;;;;;;4879564;29;20049;-71
2021/09/23 08:35:17;;;;;;;26.48;10.75;;;15.80;99.90;;;;;;4874410;29;20030;-72
2021/09/23 08:37:43;;;;;;;28.85;12.30;;;15.70;99.90;;;;;;4878845;29;20033;-72
2021/09/23 08:40:13;;;;;;;31.88;11.93;;;15.70;99.90;;;;;;4888765;29;20029;-76
2021/09/23 08:43:02;;;;;;;26.67;12.65;;;15.60;99.90;;;;;;4870974;29;20040;-73
2021/09/23 08:45:27;;;;;;;37.55;12.85;;;15.60;99.90;;;;;;4876894;29;20073;-72
2021/09/23 08:47:53;;;;;;;24.50;11.57;;;15.60;99.90;;;;;;4878331;29;20058;-73
2021/09/23 08:50:19;;;;;;;27.90;12.48;;;15.60;99.90;;;;;;4889710;29;20033;-73
2021/09/23 08:52:45;;;;;;;30.23;11.55;;;15.60;99.90;;;;;;4883651;29;20041;-72
2021/09/23 08:55:26;;;;;;;32.00;12.82;;;15.70;99.90;;;;;;4879538;29;20680;-73
2021/09/23 08:57:55;;;;;;;34.35;12.98;;;15.60;99.90;;;;;;4877977;29;20153;-72
2021/09/23 09:00:22;;;;;;;32.28;13.45;;;15.70;99.90;;;;;;4874169;29;20030;-73
2021/09/23 09:03:01;;;;;;;34.40;12.98;;;15.60;99.90;;;;;;4880481;29;20026;-73
2021/09/23 09:05:27;;;;;;;33.22;13.10;;;15.60;99.90;;;;;;4870949;29;20029;-71
2021/09/23 09:08:10;;;;;;;24.17;12.45;;;15.60;99.90;;;;;;4870526;29;20032;-71
2021/09/23 09:10:37;;;;;;;27.95;12.00;;;15.50;99.90;;;;;;4871113;29;20033;-71
2021/09/23 09:13:05;;;;;;;45.45;12.02;;;15.50;99.90;;;;;;4879702;29;20124;-74
2021/09/23 09:15:32;;;;;;;38.08;11.85;;;15.60;99.90;;;;;;4872494;29;20068;-71
2021/09/23 09:18:10;;;;;;;36.28;13.65;;;15.60;99.90;;;;;;4881391;29;20033;-70
2021/09/23 09:20:54;;;;;;;30.45;11.15;;;15.50;99.90;;;;;;4876986;29;20119;-73
2021/09/23 09:23:21;;;;;;;27.27;12.23;;;15.60;99.90;;;;;;4880908;29;20056;-72
2021/09/23 09:25:47;;;;;;;33.50;12.15;;;15.70;99.90;;;;;;4887625;29;20033;-73
2021/09/23 09:28:16;;;;;;;21.70;11.27;;;15.70;99.90;;;;;;4882569;29;20047;-73
2021/09/23 09:30:43;;;;;;;27.20;11.27;;;15.80;99.90;;;;;;4880737;29;20142;-72
2021/09/23 09:33:11;;;;;;;20.05;10.88;;;15.80;99.90;;;;;;4879653;29;20057;-73
2021/09/23 09:35:46;;;;;;;27.52;10.10;;;15.80;99.90;;;;;;4882051;29;20037;-75
2021/09/23 09:38:21;;;;;;;26.42;10.15;;;15.90;99.90;;;;;;4874138;29;20025;-75
2021/09/23 09:40:54;;;;;;;21.98;9.07;;;16.00;99.90;;;;;;4885235;29;20026;-72
2021/09/23 09:43:20;;;;;;;23.23;9.65;;;16.10;99.90;;;;;;4876337;29;20835;-71
2021/09/23 09:45:48;;;;;;;17.38;8.77;;;16.00;99.90;;;;;;4882388;29;20032;-74
2021/09/23 09:48:14;;;;;;;19.30;8.13;;;16.10;99.90;;;;;;4868106;29;20092;-72
2021/09/23 09:50:43;;;;;;;20.10;8.27;;;16.10;99.90;;;;;;4885314;29;20026;-73
2021/09/23 09:53:14;;;;;;;16.45;7.85;;;16.30;99.90;;;;;;4890773;29;20041;-72
2021/09/23 09:55:43;;;;;;;27.55;9.30;;;16.40;99.90;;;;;;4883345;29;20025;-72
2021/09/23 09:58:10;;;;;;;18.55;8.20;;;16.50;99.90;;;;;;4883729;29;20085;-73
2021/09/23 10:00:37;;;;;;;18.58;8.52;;;16.60;99.90;;;;;;4883291;29;20037;-73
2021/09/23 10:03:04;;;;;;;17.50;7.40;;;16.60;99.90;;;;;;4873082;29;20025;-74
2021/09/23 10:05:33;;;;;;;13.38;6.80;;;16.90;99.90;;;;;;4884519;29;20037;-75
2021/09/23 10:08:00;;;;;;;20.45;7.50;;;17.10;99.90;;;;;;4885417;29;20040;-72
2021/09/23 10:10:31;;;;;;;17.85;7.95;;;17.20;99.90;;;;;;4877263;29;20042;-72
2021/09/23 10:12:59;;;;;;;13.38;7.07;;;17.20;99.90;;;;;;4873363;29;20037;-72
2021/09/23 10:15:26;;;;;;;16.30;6.90;;;17.30;99.90;;;;;;4882930;29;20044;-74
2021/09/23 10:18:00;;;;;;;16.33;7.20;;;17.30;99.90;;;;;;4871498;29;20089;-72
2021/09/23 10:20:27;;;;;;;19.20;7.25;;;17.40;99.90;;;;;;4879672;29;20077;-72
2021/09/23 10:22:53;;;;;;;11.25;6.03;;;17.40;99.90;;;;;;4890402;29;20071;-70
2021/09/23 10:25:23;;;;;;;10.43;5.45;;;17.40;99.90;;;;;;4891448;29;20037;-72
2021/09/23 10:27:59;;;;;;;18.08;5.80;;;17.50;99.90;;;;;;4890687;29;20029;-71
2021/09/23 10:30:46;;;;;;;14.07;6.47;;;17.50;99.90;;;;;;4874455;29;20252;-71
2021/09/23 10:33:11;;;;;;;19.08;6.25;;;17.60;99.90;;;;;;4874805;29;20048;-70
2021/09/23 10:35:38;;;;;;;12.65;5.78;;;17.50;99.90;;;;;;4890753;29;20021;-71
2021/09/23 10:38:07;;;;;;;13.23;5.90;;;17.60;99.90;;;;;;4890812;29;20029;-74
2021/09/23 10:40:35;;;;;;;14.77;5.78;;;17.50;99.90;;;;;;4888241;29;20464;-74
2021/09/23 10:43:06;;;;;;;14.70;6.07;;;17.60;99.90;;;;;;4891001;29;20021;-73
2021/09/23 10:45:39;;;;;;;9.25;4.75;;;17.60;99.90;;;;;;4891743;29;20033;-73
2021/09/23 10:48:05;;;;;;;11.40;5.55;;;17.60;99.90;;;;;;4890830;29;20438;-70
2021/09/23 10:50:34;;;;;;;12.63;5.25;;;17.50;99.90;;;;;;4891320;29;20397;-72
2021/09/23 10:53:01;;;;;;;11.65;4.80;;;17.60;99.90;;;;;;4891594;29;20453;-73
2021/09/23 10:55:32;;;;;;;13.40;5.72;;;17.60;99.90;;;;;;4890737;29;20450;-72
2021/09/23 10:57:58;;;;;;;10.52;4.88;;;17.50;99.90;;;;;;4891686;29;20060;-71
2021/09/23 11:00:30;;;;;;;17.55;4.95;;;17.50;99.90;;;;;;4891206;29;20037;-73
2021/09/23 11:02:56;;;;;;;7.68;4.22;;;17.50;99.90;;;;;;4890821;29;20036;-71
2021/09/23 11:05:23;;;;;;;14.85;5.43;;;17.40;99.90;;;;;;4891241;29;20052;-74
2021/09/23 11:07:51;;;;;;;9.18;4.85;;;17.40;99.90;;;;;;4890758;29;20039;-72
2021/09/23 11:10:23;;;;;;;9.27;5.10;;;17.40;99.90;;;;;;4873248;29;20027;-71
2021/09/23 11:12:54;;;;;;;13.35;4.47;;;17.40;99.90;;;;;;4891014;29;20033;-71
2021/09/23 11:15:28;;;;;;;16.25;5.38;;;17.30;99.90;;;;;;4890730;29;20044;-73
2021/09/23 11:17:55;;;;;;;8.80;4.50;;;17.30;99.90;;;;;;4890916;29;20044;-72
2021/09/23 11:20:23;;;;;;;9.38;4.95;;;17.30;99.90;;;;;;4869211;29;20093;-73
2021/09/23 11:22:56;;;;;;;10.20;4.95;;;17.30;99.90;;;;;;4880702;29;20111;-75
2021/09/23 11:25:29;;;;;;;11.40;4.95;;;17.20;99.90;;;;;;4872099;29;20071;-73
2021/09/23 11:28:05;;;;;;;8.10;4.68;;;17.20;99.90;;;;;;4871101;29;20029;-72
2021/09/23 11:30:34;;;;;;;9.70;5.35;;;17.20;99.90;;;;;;4878477;29;20564;-71
2021/09/23 11:33:06;;;;;;;10.05;5.05;;;17.20;99.90;;;;;;4871886;29;20034;-72
2021/09/23 11:35:37;;;;;;;10.05;4.32;;;17.10;99.90;;;;;;4872156;29;20030;-73
2021/09/23 11:38:04;;;;;;;11.57;4.80;;;17.20;99.90;;;;;;4871737;29;20033;-73
2021/09/23 11:40:35;;;;;;;10.48;5.05;;;17.10;99.90;;;;;;4885544;29;20037;-72
2021/09/23 11:43:04;;;;;;;11.50;5.03;;;17.10;99.90;;;;;;4873773;29;20467;-72
2021/09/23 11:45:33;;;;;;;10.25;5.15;;;17.10;99.90;;;;;;4889924;29;20033;-73
2021/09/23 11:48:09;;;;;;;8.55;4.68;;;17.10;99.90;;;;;;4890959;29;20024;-72
2021/09/23 11:50:45;;;;;;;8.70;4.50;;;17.10;99.90;;;;;;4890772;29;20033;-73
2021/09/23 11:53:14;;;;;;;9.68;4.63;;;17.10;99.90;;;;;;4874396;29;20361;-72
2021/09/23 11:55:54;;;;;;;9.32;4.53;;;17.10;99.90;;;;;;4891426;29;20029;-73
2021/09/23 11:58:26;;;;;;;13.57;5.10;;;17.10;99.90;;;;;;4890603;29;20021;-73
2021/09/23 12:00:52;;;;;;;9.20;4.55;;;17.10;99.90;;;;;;4890195;29;20029;-71
2021/09/23 12:03:20;;;;;;;13.05;5.13;;;17.00;99.90;;;;;;4881061;29;20041;-72
2021/09/23 12:05:48;;;;;;;10.40;5.13;;;17.10;99.90;;;;;;4871471;29;20041;-72
2021/09/23 12:08:16;;;;;;;13.88;5.05;;;17.10;99.90;;;;;;4871571;29;20032;-74
2021/09/23 12:10:57;;;;;;;11.45;4.93;;;17.10;99.90;;;;;;4871453;29;20029;-74
2021/09/23 12:13:34;;;;;;;12.40;4.95;;;17.10;99.90;;;;;;4871223;29;20033;-72
2021/09/23 12:16:15;;;;;;;10.13;5.20;;;17.10;99.90;;;;;;4871659;29;20037;-75
2021/09/23 12:18:43;;;;;;;6.95;4.22;;;17.00;99.90;;;;;;4871771;29;20025;-73
2021/09/23 12:21:14;;;;;;;11.85;4.70;;;17.00;99.90;;;;;;4889719;29;20029;-73
2021/09/23 12:23:41;;;;;;;17.05;4.60;;;17.00;99.90;;;;;;4889569;29;20048;-73
2021/09/23 12:26:11;;;;;;;8.82;4.57;;;17.00;99.90;;;;;;4889451;29;20058;-73
2021/09/23 12:28:49;;;;;;;8.70;4.70;;;16.90;99.90;;;;;;4889874;29;20064;-73
2021/09/23 12:31:25;;;;;;;7.78;3.85;;;17.00;99.90;;;;;;4889152;29;20105;-74
2021/09/23 12:33:54;;;;;;;9.25;4.18;;;16.90;99.90;;;;;;4889458;29;20036;-72